sensor_id;sensor_type;location;lat;lon;timestamp;pressure;altitude;pressure_sealevel;temperature;humidity
76819;BME280;65772;51.096;17.006;2024-01-07T00:02:32;100065.61;;;3.96;55.80
76819;BME280;65772;51.096;17.006;2024-01-07T00:05:03;100067.59;;;3.95;55.61
76819;BME280;65772;51.096;17.006;2024-01-07T00:07:34;100072.75;;;3.94;55.80
76819;BME280;65772;51.096;17.006;2024-01-07T00:10:05;100071.51;;;3.93;55.37
76819;BME280;65772;51.096;17.006;2024-01-07T00:12:35;100075.09;;;3.90;55.43
76819;BME280;65772;51.096;17.006;2024-01-07T00:15:07;100074.24;;;3.90;55.66
76819;BME280;65772;51.096;17.006;2024-01-07T00:17:38;100077.69;;;3.88;55.78
76819;BME280;65772;51.096;17.006;2024-01-07T00:20:10;100083.14;;;3.86;56.01
76819;BME280;65772;51.096;17.006;2024-01-07T00:22:41;100079.80;;;3.87;56.14
76819;BME280;65772;51.096;17.006;2024-01-07T00:25:11;100086.59;;;3.90;56.18
76819;BME280;65772;51.096;17.006;2024-01-07T00:27:42;100084.31;;;3.92;56.31
76819;BME280;65772;51.096;17.006;2024-01-07T00:30:13;100088.50;;;3.91;56.42
76819;BME280;65772;51.096;17.006;2024-01-07T00:32:44;100082.14;;;3.89;56.40
76819;BME280;65772;51.096;17.006;2024-01-07T00:35:14;100087.20;;;3.86;56.33
76819;BME280;65772;51.096;17.006;2024-01-07T00:37:45;100084.70;;;3.80;56.32
76819;BME280;65772;51.096;17.006;2024-01-07T00:40:15;100083.95;;;3.76;56.26
76819;BME280;65772;51.096;17.006;2024-01-07T00:42:46;100079.53;;;3.72;56.60
76819;BME280;65772;51.096;17.006;2024-01-07T00:45:17;100080.51;;;3.71;56.55
76819;BME280;65772;51.096;17.006;2024-01-07T00:47:48;100081.02;;;3.71;56.79
76819;BME280;65772;51.096;17.006;2024-01-07T00:50:19;100081.52;;;3.71;56.49
76819;BME280;65772;51.096;17.006;2024-01-07T00:52:49;100081.20;;;3.72;56.85
76819;BME280;65772;51.096;17.006;2024-01-07T00:55:21;100082.23;;;3.72;56.88
76819;BME280;65772;51.096;17.006;2024-01-07T00:57:52;100085.17;;;3.73;56.84
76819;BME280;65772;51.096;17.006;2024-01-07T01:00:23;100084.86;;;3.74;56.64
76819;BME280;65772;51.096;17.006;2024-01-07T01:02:54;100087.27;;;3.75;56.79
76819;BME280;65772;51.096;17.006;2024-01-07T01:05:25;100087.05;;;3.74;56.93
76819;BME280;65772;51.096;17.006;2024-01-07T01:07:55;100089.85;;;3.73;56.72
76819;BME280;65772;51.096;17.006;2024-01-07T01:10:26;100093.73;;;3.72;56.79
76819;BME280;65772;51.096;17.006;2024-01-07T01:12:57;100097.20;;;3.71;56.71
76819;BME280;65772;51.096;17.006;2024-01-07T01:15:28;100103.16;;;3.72;56.60
76819;BME280;65772;51.096;17.006;2024-01-07T01:17:58;100105.66;;;3.71;56.58
76819;BME280;65772;51.096;17.006;2024-01-07T01:20:29;100105.44;;;3.70;56.38
76819;BME280;65772;51.096;17.006;2024-01-07T01:22:59;100108.98;;;3.66;56.37
76819;BME280;65772;51.096;17.006;2024-01-07T01:25:30;100111.57;;;3.64;56.27
76819;BME280;65772;51.096;17.006;2024-01-07T01:28:01;100112.78;;;3.62;56.16
76819;BME280;65772;51.096;17.006;2024-01-07T01:30:31;100115.29;;;3.62;55.87
76819;BME280;65772;51.096;17.006;2024-01-07T01:33:02;100114.20;;;3.63;55.90
76819;BME280;65772;51.096;17.006;2024-01-07T01:35:33;100114.83;;;3.62;55.79
76819;BME280;65772;51.096;17.006;2024-01-07T01:38:04;100115.39;;;3.60;55.78
76819;BME280;65772;51.096;17.006;2024-01-07T01:40:34;100117.68;;;3.59;55.71
76819;BME280;65772;51.096;17.006;2024-01-07T01:43:05;100114.59;;;3.57;55.49
76819;BME280;65772;51.096;17.006;2024-01-07T01:45:36;100115.63;;;3.55;55.59
76819;BME280;65772;51.096;17.006;2024-01-07T01:48:08;100113.59;;;3.55;55.24
76819;BME280;65772;51.096;17.006;2024-01-07T01:50:38;100114.66;;;3.56;55.39
76819;BME280;65772;51.096;17.006;2024-01-07T01:53:09;100112.66;;;3.56;55.19
76819;BME280;65772;51.096;17.006;2024-01-07T01:55:40;100118.70;;;3.56;55.28
76819;BME280;65772;51.096;17.006;2024-01-07T01:58:11;100115.96;;;3.55;55.65
76819;BME280;65772;51.096;17.006;2024-01-07T02:00:45;100120.13;;;3.54;55.55
76819;BME280;65772;51.096;17.006;2024-01-07T02:03:16;100122.20;;;3.55;55.90
76819;BME280;65772;51.096;17.006;2024-01-07T02:05:46;100125.38;;;3.57;56.23
76819;BME280;65772;51.096;17.006;2024-01-07T02:08:18;100124.73;;;3.61;56.58
76819;BME280;65772;51.096;17.006;2024-01-07T02:10:49;100126.15;;;3.65;56.51
76819;BME280;65772;51.096;17.006;2024-01-07T02:13:20;100122.08;;;3.68;56.65
76819;BME280;65772;51.096;17.006;2024-01-07T02:15:50;100122.48;;;3.70;56.44
76819;BME280;65772;51.096;17.006;2024-01-07T02:18:21;100118.48;;;3.71;56.56
76819;BME280;65772;51.096;17.006;2024-01-07T02:20:52;100120.15;;;3.71;56.23
76819;BME280;65772;51.096;17.006;2024-01-07T02:23:22;100117.13;;;3.71;56.15
76819;BME280;65772;51.096;17.006;2024-01-07T02:25:53;100118.39;;;3.69;55.99
76819;BME280;65772;51.096;17.006;2024-01-07T02:28:24;100121.80;;;3.66;56.15
76819;BME280;65772;51.096;17.006;2024-01-07T02:30:54;100123.39;;;3.67;55.92
76819;BME280;65772;51.096;17.006;2024-01-07T02:33:25;100128.36;;;3.69;56.19
76819;BME280;65772;51.096;17.006;2024-01-07T02:35:56;100130.73;;;3.66;55.77
76819;BME280;65772;51.096;17.006;2024-01-07T02:38:26;100135.25;;;3.62;55.74
76819;BME280;65772;51.096;17.006;2024-01-07T02:40:57;100132.57;;;3.59;55.83
76819;BME280;65772;51.096;17.006;2024-01-07T02:43:27;100129.96;;;3.55;55.71
76819;BME280;65772;51.096;17.006;2024-01-07T02:45:58;100127.97;;;3.49;55.72
76819;BME280;65772;51.096;17.006;2024-01-07T02:48:28;100130.66;;;3.46;55.78
76819;BME280;65772;51.096;17.006;2024-01-07T02:51:00;100135.61;;;3.41;55.88
76819;BME280;65772;51.096;17.006;2024-01-07T02:53:32;100135.04;;;3.37;56.00
76819;BME280;65772;51.096;17.006;2024-01-07T02:56:03;100135.42;;;3.35;56.26
76819;BME280;65772;51.096;17.006;2024-01-07T02:58:34;100140.33;;;3.35;56.37
76819;BME280;65772;51.096;17.006;2024-01-07T03:01:09;100132.88;;;3.34;56.48
76819;BME280;65772;51.096;17.006;2024-01-07T03:03:40;100139.61;;;3.34;56.41
76819;BME280;65772;51.096;17.006;2024-01-07T03:06:11;100141.81;;;3.34;56.60
76819;BME280;65772;51.096;17.006;2024-01-07T03:08:41;100141.52;;;3.35;56.12
76819;BME280;65772;51.096;17.006;2024-01-07T03:11:12;100144.33;;;3.34;56.17
76819;BME280;65772;51.096;17.006;2024-01-07T03:13:43;100143.97;;;3.30;56.42
76819;BME280;65772;51.096;17.006;2024-01-07T03:16:21;100137.66;;;3.29;56.43
76819;BME280;65772;51.096;17.006;2024-01-07T03:18:52;100142.21;;;3.29;56.56
76819;BME280;65772;51.096;17.006;2024-01-07T03:21:24;100142.86;;;3.31;56.76
76819;BME280;65772;51.096;17.006;2024-01-07T03:23:55;100144.83;;;3.37;56.73
76819;BME280;65772;51.096;17.006;2024-01-07T03:26:28;100143.41;;;3.39;56.54
76819;BME280;65772;51.096;17.006;2024-01-07T03:28:59;100144.94;;;3.36;56.46
76819;BME280;65772;51.096;17.006;2024-01-07T03:31:31;100149.77;;;3.35;56.35
76819;BME280;65772;51.096;17.006;2024-01-07T03:34:02;100149.05;;;3.34;56.22
76819;BME280;65772;51.096;17.006;2024-01-07T03:36:33;100153.05;;;3.33;56.21
76819;BME280;65772;51.096;17.006;2024-01-07T03:39:03;100155.21;;;3.33;55.86
76819;BME280;65772;51.096;17.006;2024-01-07T03:41:34;100156.08;;;3.30;55.91
76819;BME280;65772;51.096;17.006;2024-01-07T03:44:05;100160.66;;;3.26;56.00
76819;BME280;65772;51.096;17.006;2024-01-07T03:46:35;100160.30;;;3.23;56.12
76819;BME280;65772;51.096;17.006;2024-01-07T03:49:06;100158.17;;;3.22;55.77
76819;BME280;65772;51.096;17.006;2024-01-07T03:51:37;100160.90;;;3.20;55.75
76819;BME280;65772;51.096;17.006;2024-01-07T03:54:08;100162.38;;;3.19;55.58
76819;BME280;65772;51.096;17.006;2024-01-07T03:56:38;100165.06;;;3.18;55.39
76819;BME280;65772;51.096;17.006;2024-01-07T03:59:09;100165.96;;;3.16;55.25
76819;BME280;65772;51.096;17.006;2024-01-07T04:01:39;100167.16;;;3.13;55.09
76819;BME280;65772;51.096;17.006;2024-01-07T04:04:10;100165.81;;;3.16;54.83
76819;BME280;65772;51.096;17.006;2024-01-07T04:06:41;100173.16;;;3.22;54.47
76819;BME280;65772;51.096;17.006;2024-01-07T04:09:11;100170.79;;;3.24;54.09
76819;BME280;65772;51.096;17.006;2024-01-07T04:11:42;100171.08;;;3.26;54.03
76819;BME280;65772;51.096;17.006;2024-01-07T04:14:15;100172.37;;;3.28;53.49
76819;BME280;65772;51.096;17.006;2024-01-07T04:17:18;100175.13;;;3.29;53.28
76819;BME280;65772;51.096;17.006;2024-01-07T04:19:49;100177.14;;;3.29;53.15
76819;BME280;65772;51.096;17.006;2024-01-07T04:22:19;100182.93;;;3.27;52.81
76819;BME280;65772;51.096;17.006;2024-01-07T04:24:50;100181.92;;;3.27;52.61
76819;BME280;65772;51.096;17.006;2024-01-07T04:27:21;100183.29;;;3.27;52.53
76819;BME280;65772;51.096;17.006;2024-01-07T04:29:51;100181.54;;;3.32;52.33
76819;BME280;65772;51.096;17.006;2024-01-07T04:32:22;100187.27;;;3.33;52.28
76819;BME280;65772;51.096;17.006;2024-01-07T04:34:53;100186.11;;;3.30;52.29
76819;BME280;65772;51.096;17.006;2024-01-07T04:37:24;100190.76;;;3.28;52.05
76819;BME280;65772;51.096;17.006;2024-01-07T04:39:55;100189.15;;;3.30;52.08
76819;BME280;65772;51.096;17.006;2024-01-07T04:42:26;100193.92;;;3.34;52.00
76819;BME280;65772;51.096;17.006;2024-01-07T04:44:57;100197.22;;;3.36;51.75
76819;BME280;65772;51.096;17.006;2024-01-07T04:47:31;100201.73;;;3.38;51.55
76819;BME280;65772;51.096;17.006;2024-01-07T04:50:05;100201.42;;;3.38;51.24
76819;BME280;65772;51.096;17.006;2024-01-07T04:52:35;100206.02;;;3.36;51.18
76819;BME280;65772;51.096;17.006;2024-01-07T04:55:07;100208.61;;;3.34;51.24
76819;BME280;65772;51.096;17.006;2024-01-07T04:57:39;100211.48;;;3.31;50.85
76819;BME280;65772;51.096;17.006;2024-01-07T05:00:11;100214.02;;;3.28;50.91
76819;BME280;65772;51.096;17.006;2024-01-07T05:02:42;100215.14;;;3.27;50.76
76819;BME280;65772;51.096;17.006;2024-01-07T05:05:13;100217.35;;;3.21;50.71
76819;BME280;65772;51.096;17.006;2024-01-07T05:07:44;100219.55;;;3.19;50.65
76819;BME280;65772;51.096;17.006;2024-01-07T05:10:14;100225.02;;;3.20;50.92
76819;BME280;65772;51.096;17.006;2024-01-07T05:12:45;100225.50;;;3.22;51.06
76819;BME280;65772;51.096;17.006;2024-01-07T05:15:16;100228.34;;;3.28;50.94
76819;BME280;65772;51.096;17.006;2024-01-07T05:17:47;100229.05;;;3.28;50.74
76819;BME280;65772;51.096;17.006;2024-01-07T05:20:18;100231.45;;;3.26;50.62
76819;BME280;65772;51.096;17.006;2024-01-07T05:22:49;100238.63;;;3.22;50.41
76819;BME280;65772;51.096;17.006;2024-01-07T05:25:20;100237.06;;;3.21;50.54
76819;BME280;65772;51.096;17.006;2024-01-07T05:27:51;100239.30;;;3.25;50.77
76819;BME280;65772;51.096;17.006;2024-01-07T05:30:22;100246.19;;;3.27;50.59
76819;BME280;65772;51.096;17.006;2024-01-07T05:32:52;100255.80;;;3.30;50.69
76819;BME280;65772;51.096;17.006;2024-01-07T05:35:23;100256.18;;;3.31;50.50
76819;BME280;65772;51.096;17.006;2024-01-07T05:37:54;100256.59;;;3.29;50.21
76819;BME280;65772;51.096;17.006;2024-01-07T05:40:24;100253.97;;;3.27;50.22
76819;BME280;65772;51.096;17.006;2024-01-07T05:42:55;100254.77;;;3.27;50.23
76819;BME280;65772;51.096;17.006;2024-01-07T05:45:26;100254.55;;;3.26;50.11
76819;BME280;65772;51.096;17.006;2024-01-07T05:47:57;100249.95;;;3.25;49.80
76819;BME280;65772;51.096;17.006;2024-01-07T05:50:28;100252.39;;;3.20;49.58
76819;BME280;65772;51.096;17.006;2024-01-07T05:52:58;100254.56;;;3.14;49.66
76819;BME280;65772;51.096;17.006;2024-01-07T05:55:29;100255.63;;;3.10;49.64
76819;BME280;65772;51.096;17.006;2024-01-07T05:58:00;100261.83;;;3.06;49.74
76819;BME280;65772;51.096;17.006;2024-01-07T06:00:30;100259.45;;;3.03;49.75
76819;BME280;65772;51.096;17.006;2024-01-07T06:03:01;100258.74;;;3.00;49.66
76819;BME280;65772;51.096;17.006;2024-01-07T06:05:32;100266.23;;;2.98;49.75
76819;BME280;65772;51.096;17.006;2024-01-07T06:08:03;100268.39;;;2.97;49.74
76819;BME280;65772;51.096;17.006;2024-01-07T06:10:34;100268.13;;;2.99;49.67
76819;BME280;65772;51.096;17.006;2024-01-07T06:13:04;100270.52;;;2.99;49.76
76819;BME280;65772;51.096;17.006;2024-01-07T06:15:35;100276.70;;;2.98;49.79
76819;BME280;65772;51.096;17.006;2024-01-07T06:18:06;100280.83;;;2.96;49.33
76819;BME280;65772;51.096;17.006;2024-01-07T06:20:37;100281.54;;;2.93;49.25
76819;BME280;65772;51.096;17.006;2024-01-07T06:23:08;100289.11;;;2.90;49.04
76819;BME280;65772;51.096;17.006;2024-01-07T06:25:38;100289.16;;;2.86;49.04
76819;BME280;65772;51.096;17.006;2024-01-07T06:28:09;100288.17;;;2.83;49.12
76819;BME280;65772;51.096;17.006;2024-01-07T06:30:40;100292.15;;;2.82;49.25
76819;BME280;65772;51.096;17.006;2024-01-07T06:33:11;100295.92;;;2.80;49.14
76819;BME280;65772;51.096;17.006;2024-01-07T06:35:42;100293.48;;;2.82;49.28
76819;BME280;65772;51.096;17.006;2024-01-07T06:38:13;100297.83;;;2.84;49.10
76819;BME280;65772;51.096;17.006;2024-01-07T06:40:44;100300.81;;;2.83;48.96
76819;BME280;65772;51.096;17.006;2024-01-07T06:43:14;100305.65;;;2.82;49.28
76819;BME280;65772;51.096;17.006;2024-01-07T06:45:45;100308.21;;;2.83;49.47
76819;BME280;65772;51.096;17.006;2024-01-07T06:48:15;100312.42;;;2.83;49.39
76819;BME280;65772;51.096;17.006;2024-01-07T06:50:46;100316.13;;;2.83;49.42
76819;BME280;65772;51.096;17.006;2024-01-07T06:53:17;100318.34;;;2.83;49.41
76819;BME280;65772;51.096;17.006;2024-01-07T06:55:47;100321.95;;;2.84;49.03
76819;BME280;65772;51.096;17.006;2024-01-07T06:58:18;100323.48;;;2.84;49.14
76819;BME280;65772;51.096;17.006;2024-01-07T07:00:49;100333.79;;;2.82;49.05
76819;BME280;65772;51.096;17.006;2024-01-07T07:03:20;100337.48;;;2.79;48.90
76819;BME280;65772;51.096;17.006;2024-01-07T07:05:50;100343.02;;;2.76;48.72
76819;BME280;65772;51.096;17.006;2024-01-07T07:08:21;100343.34;;;2.76;48.86
76819;BME280;65772;51.096;17.006;2024-01-07T07:10:51;100344.79;;;2.75;48.79
76819;BME280;65772;51.096;17.006;2024-01-07T07:13:22;100339.98;;;2.73;48.71
76819;BME280;65772;51.096;17.006;2024-01-07T07:15:53;100341.65;;;2.70;48.54
76819;BME280;65772;51.096;17.006;2024-01-07T07:18:23;100343.28;;;2.67;48.59
76819;BME280;65772;51.096;17.006;2024-01-07T07:20:54;100344.43;;;2.66;48.53
76819;BME280;65772;51.096;17.006;2024-01-07T07:23:24;100349.58;;;2.65;48.40
76819;BME280;65772;51.096;17.006;2024-01-07T07:25:55;100351.27;;;2.65;48.37
76819;BME280;65772;51.096;17.006;2024-01-07T07:28:25;100355.05;;;2.66;48.27
76819;BME280;65772;51.096;17.006;2024-01-07T07:30:56;100358.77;;;2.67;48.85
76819;BME280;65772;51.096;17.006;2024-01-07T07:33:27;100355.77;;;2.70;48.81
76819;BME280;65772;51.096;17.006;2024-01-07T07:35:58;100353.30;;;2.70;48.45
76819;BME280;65772;51.096;17.006;2024-01-07T07:38:28;100356.43;;;2.69;48.46
76819;BME280;65772;51.096;17.006;2024-01-07T07:40:59;100352.93;;;2.67;48.36
76819;BME280;65772;51.096;17.006;2024-01-07T07:43:29;100358.89;;;2.66;48.11
76819;BME280;65772;51.096;17.006;2024-01-07T07:46:00;100358.94;;;2.63;47.96
76819;BME280;65772;51.096;17.006;2024-01-07T07:48:31;100359.63;;;2.61;48.07
76819;BME280;65772;51.096;17.006;2024-01-07T07:51:02;100366.50;;;2.60;47.80
76819;BME280;65772;51.096;17.006;2024-01-07T07:53:32;100368.16;;;2.60;47.97
76819;BME280;65772;51.096;17.006;2024-01-07T07:56:04;100371.83;;;2.62;47.80
76819;BME280;65772;51.096;17.006;2024-01-07T07:58:35;100376.73;;;2.63;47.62
76819;BME280;65772;51.096;17.006;2024-01-07T08:01:05;100384.03;;;2.61;47.57
76819;BME280;65772;51.096;17.006;2024-01-07T08:03:36;100385.88;;;2.60;47.43
76819;BME280;65772;51.096;17.006;2024-01-07T08:06:07;100388.38;;;2.62;47.51
76819;BME280;65772;51.096;17.006;2024-01-07T08:08:41;100387.55;;;2.66;47.40
76819;BME280;65772;51.096;17.006;2024-01-07T08:11:11;100390.50;;;2.67;47.33
76819;BME280;65772;51.096;17.006;2024-01-07T08:13:42;100395.70;;;2.67;47.24
76819;BME280;65772;51.096;17.006;2024-01-07T08:16:13;100394.87;;;2.67;47.17
76819;BME280;65772;51.096;17.006;2024-01-07T08:18:43;100398.05;;;2.67;47.03
76819;BME280;65772;51.096;17.006;2024-01-07T08:21:14;100395.22;;;2.67;46.88
76819;BME280;65772;51.096;17.006;2024-01-07T08:23:45;100395.86;;;2.67;46.90
76819;BME280;65772;51.096;17.006;2024-01-07T08:26:19;100396.09;;;2.68;46.97
76819;BME280;65772;51.096;17.006;2024-01-07T08:28:50;100403.38;;;2.68;46.86
76819;BME280;65772;51.096;17.006;2024-01-07T08:31:21;100400.98;;;2.68;46.90
76819;BME280;65772;51.096;17.006;2024-01-07T08:33:52;100403.73;;;2.68;46.84
76819;BME280;65772;51.096;17.006;2024-01-07T08:36:24;100409.67;;;2.67;46.95
76819;BME280;65772;51.096;17.006;2024-01-07T08:38:54;100414.81;;;2.65;46.91
76819;BME280;65772;51.096;17.006;2024-01-07T08:41:25;100418.95;;;2.64;46.96
76819;BME280;65772;51.096;17.006;2024-01-07T08:43:56;100418.27;;;2.63;47.13
76819;BME280;65772;51.096;17.006;2024-01-07T08:46:26;100419.14;;;2.67;47.24
76819;BME280;65772;51.096;17.006;2024-01-07T08:48:57;100419.08;;;2.71;47.22
76819;BME280;65772;51.096;17.006;2024-01-07T08:51:28;100420.77;;;2.77;47.13
76819;BME280;65772;51.096;17.006;2024-01-07T08:53:59;100422.05;;;2.81;46.78
76819;BME280;65772;51.096;17.006;2024-01-07T08:56:30;100423.75;;;2.81;46.63
76819;BME280;65772;51.096;17.006;2024-01-07T08:59:01;100427.67;;;2.79;46.63
76819;BME280;65772;51.096;17.006;2024-01-07T09:01:33;100429.91;;;2.78;46.58
76819;BME280;65772;51.096;17.006;2024-01-07T09:04:04;100434.92;;;2.77;46.78
76819;BME280;65772;51.096;17.006;2024-01-07T09:06:35;100431.31;;;2.78;46.84
76819;BME280;65772;51.096;17.006;2024-01-07T09:09:05;100434.20;;;2.79;46.54
76819;BME280;65772;51.096;17.006;2024-01-07T09:11:37;100437.13;;;2.80;46.65
76819;BME280;65772;51.096;17.006;2024-01-07T09:14:08;100436.29;;;2.80;46.74
76819;BME280;65772;51.096;17.006;2024-01-07T09:16:38;100435.52;;;2.83;46.71
76819;BME280;65772;51.096;17.006;2024-01-07T09:19:09;100438.27;;;2.87;46.90
76819;BME280;65772;51.096;17.006;2024-01-07T09:21:43;100435.62;;;2.91;46.81
76819;BME280;65772;51.096;17.006;2024-01-07T09:24:15;100437.80;;;2.93;46.99
76819;BME280;65772;51.096;17.006;2024-01-07T09:26:48;100442.92;;;2.94;46.85
76819;BME280;65772;51.096;17.006;2024-01-07T09:29:18;100446.19;;;2.96;46.83
76819;BME280;65772;51.096;17.006;2024-01-07T09:31:49;100450.64;;;2.94;46.81
76819;BME280;65772;51.096;17.006;2024-01-07T09:34:20;100450.70;;;2.94;46.73
76819;BME280;65772;51.096;17.006;2024-01-07T09:36:51;100449.13;;;2.97;46.60
76819;BME280;65772;51.096;17.006;2024-01-07T09:39:21;100444.75;;;2.97;46.48
76819;BME280;65772;51.096;17.006;2024-01-07T09:41:52;100448.18;;;2.98;46.41
76819;BME280;65772;51.096;17.006;2024-01-07T09:44:23;100445.55;;;2.99;46.54
76819;BME280;65772;51.096;17.006;2024-01-07T09:46:55;100442.27;;;2.98;46.41
76819;BME280;65772;51.096;17.006;2024-01-07T09:49:26;100439.16;;;2.97;46.62
76819;BME280;65772;51.096;17.006;2024-01-07T09:52:00;100438.88;;;2.98;46.53
76819;BME280;65772;51.096;17.006;2024-01-07T09:54:34;100440.26;;;2.98;46.38
76819;BME280;65772;51.096;17.006;2024-01-07T09:57:07;100436.81;;;3.00;46.32
76819;BME280;65772;51.096;17.006;2024-01-07T09:59:38;100436.23;;;3.01;46.17
76819;BME280;65772;51.096;17.006;2024-01-07T10:02:09;100433.56;;;3.02;45.98
76819;BME280;65772;51.096;17.006;2024-01-07T10:04:41;100434.25;;;2.99;45.98
76819;BME280;65772;51.096;17.006;2024-01-07T10:07:12;100432.27;;;2.97;46.00
76819;BME280;65772;51.096;17.006;2024-01-07T10:09:43;100426.05;;;2.94;45.72
76819;BME280;65772;51.096;17.006;2024-01-07T10:12:14;100427.31;;;2.87;45.78
76819;BME280;65772;51.096;17.006;2024-01-07T10:14:45;100427.70;;;2.83;45.80
76819;BME280;65772;51.096;17.006;2024-01-07T10:17:19;100432.64;;;2.78;45.97
76819;BME280;65772;51.096;17.006;2024-01-07T10:19:53;100431.70;;;2.74;45.99
76819;BME280;65772;51.096;17.006;2024-01-07T10:22:23;100431.41;;;2.72;45.94
76819;BME280;65772;51.096;17.006;2024-01-07T10:24:54;100433.52;;;2.73;45.94
76819;BME280;65772;51.096;17.006;2024-01-07T10:27:25;100432.88;;;2.73;46.06
76819;BME280;65772;51.096;17.006;2024-01-07T10:29:55;100439.37;;;2.75;45.83
76819;BME280;65772;51.096;17.006;2024-01-07T10:32:28;100437.56;;;2.73;45.39
76819;BME280;65772;51.096;17.006;2024-01-07T10:35:04;100441.71;;;2.69;45.36
76819;BME280;65772;51.096;17.006;2024-01-07T10:37:35;100446.25;;;2.67;45.23
76819;BME280;65772;51.096;17.006;2024-01-07T10:40:08;100441.92;;;2.65;45.16
76819;BME280;65772;51.096;17.006;2024-01-07T10:42:44;100440.95;;;2.63;45.13
76819;BME280;65772;51.096;17.006;2024-01-07T10:45:15;100439.77;;;2.60;45.18
76819;BME280;65772;51.096;17.006;2024-01-07T10:47:49;100436.42;;;2.54;45.14
76819;BME280;65772;51.096;17.006;2024-01-07T10:50:21;100438.39;;;2.54;45.40
76819;BME280;65772;51.096;17.006;2024-01-07T10:52:54;100437.23;;;2.54;44.99
76819;BME280;65772;51.096;17.006;2024-01-07T10:55:34;100437.30;;;2.55;44.73
76819;BME280;65772;51.096;17.006;2024-01-07T10:58:05;100437.67;;;2.56;44.82
76819;BME280;65772;51.096;17.006;2024-01-07T11:00:36;100436.80;;;2.55;44.74
76819;BME280;65772;51.096;17.006;2024-01-07T11:03:13;100442.84;;;2.55;44.99
76819;BME280;65772;51.096;17.006;2024-01-07T11:05:50;100444.55;;;2.53;44.93
76819;BME280;65772;51.096;17.006;2024-01-07T11:08:26;100443.20;;;2.52;44.71
76819;BME280;65772;51.096;17.006;2024-01-07T11:11:05;100440.04;;;2.48;44.55
76819;BME280;65772;51.096;17.006;2024-01-07T11:13:37;100438.98;;;2.45;44.67
76819;BME280;65772;51.096;17.006;2024-01-07T11:16:09;100442.84;;;2.41;44.52
76819;BME280;65772;51.096;17.006;2024-01-07T11:18:45;100442.14;;;2.36;44.26
76819;BME280;65772;51.096;17.006;2024-01-07T11:21:23;100444.07;;;2.32;44.33
76819;BME280;65772;51.096;17.006;2024-01-07T11:23:55;100440.98;;;2.29;44.43
76819;BME280;65772;51.096;17.006;2024-01-07T11:26:29;100440.80;;;2.28;44.67
76819;BME280;65772;51.096;17.006;2024-01-07T11:29:01;100435.96;;;2.27;44.62
76819;BME280;65772;51.096;17.006;2024-01-07T11:31:48;100445.58;;;2.24;44.78
76819;BME280;65772;51.096;17.006;2024-01-07T11:34:40;100450.15;;;2.21;44.89
76819;BME280;65772;51.096;17.006;2024-01-07T11:37:12;100449.29;;;2.21;44.72
76819;BME280;65772;51.096;17.006;2024-01-07T11:39:45;100451.17;;;2.22;44.94
76819;BME280;65772;51.096;17.006;2024-01-07T11:42:15;100450.10;;;2.24;44.69
76819;BME280;65772;51.096;17.006;2024-01-07T11:44:50;100450.55;;;2.26;44.42
76819;BME280;65772;51.096;17.006;2024-01-07T11:47:21;100445.44;;;2.27;44.41
76819;BME280;65772;51.096;17.006;2024-01-07T11:49:53;100445.00;;;2.26;44.43
76819;BME280;65772;51.096;17.006;2024-01-07T11:52:24;100446.27;;;2.21;44.46
76819;BME280;65772;51.096;17.006;2024-01-07T11:54:54;100442.88;;;2.21;44.27
76819;BME280;65772;51.096;17.006;2024-01-07T11:57:25;100448.65;;;2.19;44.30
76819;BME280;65772;51.096;17.006;2024-01-07T11:59:56;100446.43;;;2.18;44.09
76819;BME280;65772;51.096;17.006;2024-01-07T12:02:26;100447.16;;;2.17;43.75
76819;BME280;65772;51.096;17.006;2024-01-07T12:04:59;100447.65;;;2.11;43.83
76819;BME280;65772;51.096;17.006;2024-01-07T12:07:30;100446.75;;;2.08;43.74
76819;BME280;65772;51.096;17.006;2024-01-07T12:10:01;100445.85;;;2.02;43.87
76819;BME280;65772;51.096;17.006;2024-01-07T12:12:32;100444.20;;;1.97;43.78
76819;BME280;65772;51.096;17.006;2024-01-07T12:15:04;100447.80;;;1.93;43.95
76819;BME280;65772;51.096;17.006;2024-01-07T12:17:34;100453.09;;;1.89;44.23
76819;BME280;65772;51.096;17.006;2024-01-07T12:20:07;100460.34;;;1.87;44.11
76819;BME280;65772;51.096;17.006;2024-01-07T12:22:40;100460.13;;;1.84;44.13
76819;BME280;65772;51.096;17.006;2024-01-07T12:25:10;100464.55;;;1.79;43.98
76819;BME280;65772;51.096;17.006;2024-01-07T12:27:43;100460.15;;;1.74;43.71
76819;BME280;65772;51.096;17.006;2024-01-07T12:30:17;100462.35;;;1.69;43.77
76819;BME280;65772;51.096;17.006;2024-01-07T12:32:51;100467.63;;;1.67;43.66
76819;BME280;65772;51.096;17.006;2024-01-07T12:35:21;100473.86;;;1.65;43.68
76819;BME280;65772;51.096;17.006;2024-01-07T12:37:55;100474.17;;;1.62;43.89
76819;BME280;65772;51.096;17.006;2024-01-07T12:40:26;100473.64;;;1.59;43.99
76819;BME280;65772;51.096;17.006;2024-01-07T12:42:57;100476.66;;;1.59;43.97
76819;BME280;65772;51.096;17.006;2024-01-07T12:45:27;100477.86;;;1.57;43.92
76819;BME280;65772;51.096;17.006;2024-01-07T12:47:58;100481.61;;;1.55;44.09
76819;BME280;65772;51.096;17.006;2024-01-07T12:50:31;100483.31;;;1.58;44.76
76819;BME280;65772;51.096;17.006;2024-01-07T12:53:02;100486.91;;;1.61;44.90
76819;BME280;65772;51.096;17.006;2024-01-07T12:55:34;100490.77;;;1.66;44.61
76819;BME280;65772;51.096;17.006;2024-01-07T12:58:04;100486.49;;;1.67;44.25
76819;BME280;65772;51.096;17.006;2024-01-07T13:00:35;100489.11;;;1.64;44.02
76819;BME280;65772;51.096;17.006;2024-01-07T13:03:07;100491.86;;;1.60;44.08
76819;BME280;65772;51.096;17.006;2024-01-07T13:05:42;100493.33;;;1.56;44.31
76819;BME280;65772;51.096;17.006;2024-01-07T13:08:14;100499.13;;;1.53;44.22
76819;BME280;65772;51.096;17.006;2024-01-07T13:10:44;100498.49;;;1.48;43.98
76819;BME280;65772;51.096;17.006;2024-01-07T13:13:15;100496.38;;;1.47;43.70